Terminal Aerodrome Forecast
Issued by NWS Huntsville, AL

Home | Current Version | Previous Version | Text Only | Print | Product List | Glossary On
Versions: 1 2 3 4 5 6 7 8 9 10 11 12 13 14 15 16 17 18 19 20 21 22 23 24 25 26 27
000
FTUS44 KHUN 021734
TAFMSL
TAF
KMSL 021734Z 0218/0318 24012G17KT P6SM VCSH SCT030 BKN060
      TEMPO 0221/0301 4SM TSRA OVC025CB
     FM030100 22008KT P6SM VCSH SCT030 BKN060
     FM031000 24008KT 6SM -SHRA BR SCT020 BKN040
      TEMPO 0310/0314 3SM TSRA BR BKN020CB=

USA.gov is the U.S. government's official web portal to all federal, state and local government web resources and services.